Shimanami Star — C6VN9 — position and weather

sailwx.info

Track history (hours):
 
Tides and Currents Weather Stations Pressure Air Temp Water Temp Dewpoint Dewpoint Depression Visibility Wind Speed Wind Dir Waves Ship Positions

Shimanami Star

Last reported at 2014-Oct-13 13:13 UTC. Time now 2014-Oct-23 04:38 UTC.
Position N 24°06' W 113°26'.
Warning: this ship's position is 9 days out of date.

Length 170 m; draft 9.7 m.

Type: Cargo ship. MMSI: 309116000.

Date/timePositionNaut miles runAvg speedWind from/ knotsBaromVisibWave heightAir tempDewpointWater temp
2014-Oct-13 13:13N 24°06' W 113°26'30812.9
2014-Oct-12 13:25N 27°14' W 117°56'1612.2
2014-Oct-12 12:06N 27°24' W 118°10'2012.6
2014-Oct-12 10:28N 27°36' W 118°28'2412.6
2014-Oct-12 08:32N 27°51' W 118°50'1212.7
2014-Oct-12 07:33N 27°59' W 119°01'1313.0
2014-Oct-12 06:33N 28°07' W 119°13'2613.0
2014-Oct-12 04:33N 28°23' W 119°36'1813.0
2014-Oct-12 03:11N 28°34' W 119°52'913.0
2014-Oct-12 02:31N 28°39' W 120°00'1613.3
2014-Oct-12 01:20N 28°49' W 120°14'1513.3
2014-Oct-12 00:11N 28°58' W 120°28'913.4
2014-Oct-11 23:33N 29°03' W 120°36'1313.2
2014-Oct-11 22:31N 29°12' W 120°48'1412.9
2014-Oct-11 21:28N 29°20' W 121°00'1212.7
2014-Oct-11 20:33N 29°27' W 121°11'1312.7
2014-Oct-11 19:33N 29°35' W 121°23'1312.8
2014-Oct-11 18:33N 29°43' W 121°34'1312.9
2014-Oct-11 17:33N 29°51' W 121°46'1313.0
2014-Oct-11 16:33N 29°58' W 121°58'1312.8
2014-Oct-11 15:33N 30°08' W 122°07'1312.7
2014-Oct-11 14:33N 30°18' W 122°16'1212.5
2014-Oct-11 13:33N 30°28' W 122°25'1312.8
2014-Oct-11 12:33N 30°38' W 122°34'1313.1
2014-Oct-11 11:33N 30°49' W 122°43'1413.1
2014-Oct-11 10:28N 31°00' W 122°53'1212.7
2014-Oct-11 09:33N 31°09' W 123°02'1313.0
2014-Oct-11 08:33N 31°20' W 123°11'1313.1
2014-Oct-11 07:33N 31°30' W 123°20'1313.1
2014-Oct-11 06:33N 31°41' W 123°30'1313.1
2014-Oct-11 05:33N 31°51' W 123°39'1313.0
2014-Oct-11 04:33N 32°01' W 123°48'1313.1
2014-Oct-11 03:33N 32°12' W 123°58'1313.1
2014-Oct-11 02:33N 32°22' W 124°07'1313.1
2014-Oct-11 01:33N 32°33' W 124°16'1313.2
2014-Oct-11 00:33N 32°43' W 124°26'1313.2
2014-Oct-10 23:33N 32°53' W 124°35'1413.3
2014-Oct-10 22:28N 33°05' W 124°46'1213.5
2014-Oct-10 21:33N 33°15' W 124°55'1513.6
2014-Oct-10 20:27N 33°27' W 125°06'1213.3
2014-Oct-10 19:33N 33°36' W 125°14'1313.2
2014-Oct-10 18:33N 33°47' W 125°24'1313.3
2014-Oct-10 17:33N 33°57' W 125°34'1413.2
2014-Oct-10 16:30N 34°08' W 125°44'1413.2
2014-Oct-10 15:27N 34°19' W 125°54'1212.8
2014-Oct-10 14:30N 34°29' W 126°03'1512.6
2014-Oct-10 13:21N 34°40' W 126°14'1012.6
2014-Oct-10 12:33N 34°48' W 126°21'1312.8
2014-Oct-10 11:33N 34°59' W 126°31'1312.9
2014-Oct-10 10:33N 35°09' W 126°40'1313.1
2014-Oct-10 09:33N 35°19' W 126°50'1313.0
2014-Oct-10 08:33N 35°29' W 126°59'1312.9
2014-Oct-10 07:33N 35°41' W 127°05'12012.8
2014-Oct-09 22:12N 37°33' W 127°58'1013.1
2014-Oct-09 21:28N 37°42' W 128°03'1212.8
2014-Oct-09 20:33N 37°53' W 128°08'1412.5
2014-Oct-09 19:25N 38°06' W 128°14'1112.4
2014-Oct-09 18:30N 38°17' W 128°19'1512.5
2014-Oct-09 17:19N 38°31' W 128°26'1212.8
2014-Oct-09 16:21N 38°42' W 128°32'1112.8
2014-Oct-09 15:28N 38°53' W 128°37'1212.7
2014-Oct-09 14:33N 39°04' W 128°42'1812.8
2014-Oct-09 13:09N 39°21' W 128°48'2412.5
2014-Oct-09 11:14N 39°44' W 128°56'1212.6
2014-Oct-09 10:19N 39°55' W 128°59'46212.6
2014-Oct-07 21:31N 47°36' W 128°07'1313.0
2014-Oct-07 20:33N 47°48' W 127°60'1312.7
2014-Oct-07 19:33N 47°60' W 127°53'1612.3
2014-Oct-07 18:14N 48°15' W 127°45'812.2
2014-Oct-07 17:33N 48°23' W 127°42'1312.5
2014-Oct-07 16:31N 48°35' W 127°34'1010.1
2014-Oct-07 15:30N 48°39' W 127°20'1212.1
2014-Oct-07 14:32N 48°37' W 127°02'1111.3
2014-Oct-07 13:34N 48°37' W 126°45'10 9.8
2014-Oct-07 12:33N 48°36' W 126°30'1312.6
2014-Oct-07 11:33N 48°35' W 126°12'1212.5
2014-Oct-07 10:33N 48°33' W 125°53'1312.8
2014-Oct-07 09:34N 48°32' W 125°34'1312.6
2014-Oct-07 08:33N 48°31' W 125°15'1212.3
2014-Oct-07 07:33N 48°31' W 124°56'1212.3
2014-Oct-07 06:33N 48°29' W 124°38'1313.0
2014-Oct-07 05:33N 48°24' W 124°20'1313.1
2014-Oct-07 04:33N 48°19' W 124°01'1313.4
2014-Oct-07 03:33N 48°16' W 123°42'1211.8
2014-Oct-07 02:33N 48°22' W 123°26'1110.7
2014-Oct-07 01:34N 48°28' W 123°13'1313.4
2014-Oct-07 00:33N 48°41' W 123°15'1212.1
2014-Oct-06 23:33N 48°48' W 123°00'1312.9
2014-Oct-06 22:33N 48°58' W 123°14'1111.4
2014-Oct-06 21:33N 49°07' W 123°23'1211.9
2014-Oct-06 20:33N 49°18' W 123°14'2 2.2
2014-Oct-06 19:31N 49°18' W 123°11'0 0.0
2014-Oct-06 18:31N 49°18' W 123°11'0 0.1
2014-Oct-06 17:31N 49°18' W 123°11'0 0.0
2014-Oct-06 16:31N 49°18' W 123°11'0 0.0
2014-Oct-06 15:31N 49°18' W 123°11'0 0.0
2014-Oct-06 14:31N 49°18' W 123°11'0 0.1
2014-Oct-06 13:31N 49°18' W 123°11'0 0.0
2014-Oct-06 12:31N 49°18' W 123°11'0 0.0
2014-Oct-06 11:31N 49°18' W 123°11'0 0.1
2014-Oct-06 10:31N 49°18' W 123°11'0 0.0
2014-Oct-06 09:31N 49°18' W 123°11'0 0.0
2014-Oct-06 08:31N 49°18' W 123°11'0 0.0
2014-Oct-06 07:31N 49°18' W 123°11'0 0.0
2014-Oct-06 06:31N 49°18' W 123°11'0 0.0
2014-Oct-06 05:31N 49°18' W 123°11'0 0.1
2014-Oct-06 04:31N 49°18' W 123°11'0 0.0
2014-Oct-06 03:31N 49°18' W 123°11'0 0.0
2014-Oct-06 02:31N 49°18' W 123°11'0 0.1
2014-Oct-06 01:31N 49°18' W 123°11'0 0.0
2014-Oct-06 00:31N 49°18' W 123°11'0 0.1
2014-Oct-05 23:31N 49°18' W 123°11'0 0.0
2014-Oct-05 22:31N 49°18' W 123°11'0 0.0
2014-Oct-05 21:31N 49°18' W 123°11'1 0.8
2014-Oct-05 20:33N 49°19' W 123°10'4 4.2
2014-Oct-05 19:31N 49°17' W 123°04'0 0.0
2014-Oct-05 18:31N 49°17' W 123°04'0 0.0
2014-Oct-05 17:31N 49°17' W 123°04'0 0.0
2014-Oct-05 16:31N 49°17' W 123°04'0 0.0
2014-Oct-05 15:31N 49°17' W 123°04'0 0.0
2014-Oct-05 14:31N 49°17' W 123°04'0 0.0
2014-Oct-05 13:31N 49°17' W 123°04'0 0.0
2014-Oct-05 12:31N 49°17' W 123°04'0 0.0
2014-Oct-05 11:31N 49°17' W 123°04'0 0.0
2014-Oct-05 10:31N 49°17' W 123°04'0 0.0
2014-Oct-05 09:31N 49°17' W 123°04'0 0.0
2014-Oct-05 08:31N 49°17' W 123°04'0 0.0
2014-Oct-05 07:31N 49°17' W 123°04'0 0.0
2014-Oct-05 06:31N 49°17' W 123°04'0 0.0
2014-Oct-05 05:31N 49°17' W 123°04'0 0.0
2014-Oct-05 04:31N 49°17' W 123°04'0 0.0
2014-Oct-05 03:31N 49°17' W 123°04'0 0.0
2014-Oct-05 02:31N 49°17' W 123°04'0 0.0
2014-Oct-05 01:31N 49°17' W 123°04'0 0.0
2014-Oct-05 00:31N 49°17' W 123°04'0 0.0
2014-Oct-04 23:31N 49°17' W 123°04'0 0.0
2014-Oct-04 22:31N 49°17' W 123°04'0 0.0
2014-Oct-04 21:31N 49°17' W 123°04'0 0.0
2014-Oct-04 20:31N 49°17' W 123°04'0 0.0
2014-Oct-04 19:31N 49°17' W 123°04'0 0.0
2014-Oct-04 18:31N 49°17' W 123°04'0 0.0
2014-Oct-04 17:31N 49°17' W 123°04'0 0.0
2014-Oct-04 16:31N 49°17' W 123°04'0 0.0
2014-Oct-04 15:31N 49°17' W 123°04'0 0.0
2014-Oct-04 14:31N 49°17' W 123°04'0 0.0
2014-Oct-04 13:31N 49°17' W 123°04'0 0.0
2014-Oct-04 12:31N 49°17' W 123°04'0 0.0
2014-Oct-04 11:31N 49°17' W 123°04'0 0.0
2014-Oct-04 10:31N 49°17' W 123°04'0 0.0
2014-Oct-04 09:31N 49°17' W 123°04'0 0.0
2014-Oct-04 08:31N 49°17' W 123°04'0 0.0
2014-Oct-04 07:31N 49°17' W 123°04'0 0.0
2014-Oct-04 06:28N 49°17' W 123°04'0 0.0
2014-Oct-04 05:31N 49°17' W 123°04'0 0.0
2014-Oct-04 04:31N 49°17' W 123°04'0 0.0
2014-Oct-04 03:31N 49°17' W 123°04'0 0.0
2014-Oct-04 02:31N 49°17' W 123°04'0 0.0
2014-Oct-04 01:31N 49°17' W 123°04'0 0.0
2014-Oct-04 00:28N 49°17' W 123°04'0 0.0
2014-Oct-03 23:31N 49°17' W 123°04'0 0.0
2014-Oct-03 22:31N 49°17' W 123°04'0 0.0
2014-Oct-03 21:31N 49°17' W 123°04'0 0.0
2014-Oct-03 20:31N 49°17' W 123°04'0 0.0
2014-Oct-03 19:28N 49°17' W 123°04'0 0.0
2014-Oct-03 18:31N 49°17' W 123°04'0 0.0
2014-Oct-03 17:31N 49°17' W 123°04'0 0.0
2014-Oct-03 16:31N 49°17' W 123°04'0 0.0
2014-Oct-03 15:31N 49°17' W 123°04'0 0.0
2014-Oct-03 14:31N 49°17' W 123°04'0 0.0
2014-Oct-03 13:31N 49°17' W 123°04'  
Track history (hours):
 
Tides and Currents Weather Stations Pressure Air Temp Water Temp Dewpoint Dewpoint Depression Visibility Wind Speed Wind Dir Waves Ship Positions

Shimanami Star

Last reported at 2014-Oct-13 13:13 UTC. Time now 2014-Oct-23 04:38 UTC.
Position N 24°06' W 113°26'.
Warning: this ship's position is 9 days out of date.

Length 170 m; draft 9.7 m.

Type: Cargo ship. MMSI: 309116000.

Date/timePositionNaut miles runAvg speedWind from/ knotsBaromVisibWave heightAir tempDewpointWater temp
2014-Oct-13 13:13N 24°06' W 113°26'30812.9
2014-Oct-12 13:25N 27°14' W 117°56'1612.2
2014-Oct-12 12:06N 27°24' W 118°10'2012.6
2014-Oct-12 10:28N 27°36' W 118°28'2412.6
2014-Oct-12 08:32N 27°51' W 118°50'1212.7
2014-Oct-12 07:33N 27°59' W 119°01'1313.0
2014-Oct-12 06:33N 28°07' W 119°13'2613.0
2014-Oct-12 04:33N 28°23' W 119°36'1813.0
2014-Oct-12 03:11N 28°34' W 119°52'913.0
2014-Oct-12 02:31N 28°39' W 120°00'1613.3
2014-Oct-12 01:20N 28°49' W 120°14'1513.3
2014-Oct-12 00:11N 28°58' W 120°28'913.4
2014-Oct-11 23:33N 29°03' W 120°36'1313.2
2014-Oct-11 22:31N 29°12' W 120°48'1412.9
2014-Oct-11 21:28N 29°20' W 121°00'1212.7
2014-Oct-11 20:33N 29°27' W 121°11'1312.7
2014-Oct-11 19:33N 29°35' W 121°23'1312.8
2014-Oct-11 18:33N 29°43' W 121°34'1312.9
2014-Oct-11 17:33N 29°51' W 121°46'1313.0
2014-Oct-11 16:33N 29°58' W 121°58'1312.8
2014-Oct-11 15:33N 30°08' W 122°07'1312.7
2014-Oct-11 14:33N 30°18' W 122°16'1212.5
2014-Oct-11 13:33N 30°28' W 122°25'1312.8
2014-Oct-11 12:33N 30°38' W 122°34'1313.1
2014-Oct-11 11:33N 30°49' W 122°43'1413.1
2014-Oct-11 10:28N 31°00' W 122°53'1212.7
2014-Oct-11 09:33N 31°09' W 123°02'1313.0
2014-Oct-11 08:33N 31°20' W 123°11'1313.1
2014-Oct-11 07:33N 31°30' W 123°20'1313.1
2014-Oct-11 06:33N 31°41' W 123°30'1313.1
2014-Oct-11 05:33N 31°51' W 123°39'1313.0
2014-Oct-11 04:33N 32°01' W 123°48'1313.1
2014-Oct-11 03:33N 32°12' W 123°58'1313.1
2014-Oct-11 02:33N 32°22' W 124°07'1313.1
2014-Oct-11 01:33N 32°33' W 124°16'1313.2
2014-Oct-11 00:33N 32°43' W 124°26'1313.2
2014-Oct-10 23:33N 32°53' W 124°35'1413.3
2014-Oct-10 22:28N 33°05' W 124°46'1213.5
2014-Oct-10 21:33N 33°15' W 124°55'1513.6
2014-Oct-10 20:27N 33°27' W 125°06'1213.3
2014-Oct-10 19:33N 33°36' W 125°14'1313.2
2014-Oct-10 18:33N 33°47' W 125°24'1313.3
2014-Oct-10 17:33N 33°57' W 125°34'1413.2
2014-Oct-10 16:30N 34°08' W 125°44'1413.2
2014-Oct-10 15:27N 34°19' W 125°54'1212.8
2014-Oct-10 14:30N 34°29' W 126°03'1512.6
2014-Oct-10 13:21N 34°40' W 126°14'1012.6
2014-Oct-10 12:33N 34°48' W 126°21'1312.8
2014-Oct-10 11:33N 34°59' W 126°31'1312.9
2014-Oct-10 10:33N 35°09' W 126°40'1313.1
2014-Oct-10 09:33N 35°19' W 126°50'1313.0
2014-Oct-10 08:33N 35°29' W 126°59'1312.9
2014-Oct-10 07:33N 35°41' W 127°05'12012.8
2014-Oct-09 22:12N 37°33' W 127°58'1013.1
2014-Oct-09 21:28N 37°42' W 128°03'1212.8
2014-Oct-09 20:33N 37°53' W 128°08'1412.5
2014-Oct-09 19:25N 38°06' W 128°14'1112.4
2014-Oct-09 18:30N 38°17' W 128°19'1512.5
2014-Oct-09 17:19N 38°31' W 128°26'1212.8
2014-Oct-09 16:21N 38°42' W 128°32'1112.8
2014-Oct-09 15:28N 38°53' W 128°37'1212.7
2014-Oct-09 14:33N 39°04' W 128°42'1812.8
2014-Oct-09 13:09N 39°21' W 128°48'2412.5
2014-Oct-09 11:14N 39°44' W 128°56'1212.6
2014-Oct-09 10:19N 39°55' W 128°59'46212.6
2014-Oct-07 21:31N 47°36' W 128°07'1313.0
2014-Oct-07 20:33N 47°48' W 127°60'1312.7
2014-Oct-07 19:33N 47°60' W 127°53'1612.3
2014-Oct-07 18:14N 48°15' W 127°45'812.2
2014-Oct-07 17:33N 48°23' W 127°42'1312.5
2014-Oct-07 16:31N 48°35' W 127°34'1010.1
2014-Oct-07 15:30N 48°39' W 127°20'1212.1
2014-Oct-07 14:32N 48°37' W 127°02'1111.3
2014-Oct-07 13:34N 48°37' W 126°45'10 9.8
2014-Oct-07 12:33N 48°36' W 126°30'1312.6
2014-Oct-07 11:33N 48°35' W 126°12'1212.5
2014-Oct-07 10:33N 48°33' W 125°53'1312.8
2014-Oct-07 09:34N 48°32' W 125°34'1312.6
2014-Oct-07 08:33N 48°31' W 125°15'1212.3
2014-Oct-07 07:33N 48°31' W 124°56'1212.3
2014-Oct-07 06:33N 48°29' W 124°38'1313.0
2014-Oct-07 05:33N 48°24' W 124°20'1313.1
2014-Oct-07 04:33N 48°19' W 124°01'1313.4
2014-Oct-07 03:33N 48°16' W 123°42'1211.8
2014-Oct-07 02:33N 48°22' W 123°26'1110.7
2014-Oct-07 01:34N 48°28' W 123°13'1313.4
2014-Oct-07 00:33N 48°41' W 123°15'1212.1
2014-Oct-06 23:33N 48°48' W 123°00'1312.9
2014-Oct-06 22:33N 48°58' W 123°14'1111.4
2014-Oct-06 21:33N 49°07' W 123°23'1211.9
2014-Oct-06 20:33N 49°18' W 123°14'2 2.2
2014-Oct-06 19:31N 49°18' W 123°11'0 0.0
2014-Oct-06 18:31N 49°18' W 123°11'0 0.1
2014-Oct-06 17:31N 49°18' W 123°11'0 0.0
2014-Oct-06 16:31N 49°18' W 123°11'0 0.0
2014-Oct-06 15:31N 49°18' W 123°11'0 0.0
2014-Oct-06 14:31N 49°18' W 123°11'0 0.1
2014-Oct-06 13:31N 49°18' W 123°11'0 0.0
2014-Oct-06 12:31N 49°18' W 123°11'0 0.0
2014-Oct-06 11:31N 49°18' W 123°11'0 0.1
2014-Oct-06 10:31N 49°18' W 123°11'0 0.0
2014-Oct-06 09:31N 49°18' W 123°11'0 0.0
2014-Oct-06 08:31N 49°18' W 123°11'0 0.0
2014-Oct-06 07:31N 49°18' W 123°11'0 0.0
2014-Oct-06 06:31N 49°18' W 123°11'0 0.0
2014-Oct-06 05:31N 49°18' W 123°11'0 0.1
2014-Oct-06 04:31N 49°18' W 123°11'0 0.0
2014-Oct-06 03:31N 49°18' W 123°11'0 0.0
2014-Oct-06 02:31N 49°18' W 123°11'0 0.1
2014-Oct-06 01:31N 49°18' W 123°11'0 0.0
2014-Oct-06 00:31N 49°18' W 123°11'0 0.1
2014-Oct-05 23:31N 49°18' W 123°11'0 0.0
2014-Oct-05 22:31N 49°18' W 123°11'0 0.0
2014-Oct-05 21:31N 49°18' W 123°11'1 0.8
2014-Oct-05 20:33N 49°19' W 123°10'4 4.2
2014-Oct-05 19:31N 49°17' W 123°04'0 0.0
2014-Oct-05 18:31N 49°17' W 123°04'0 0.0
2014-Oct-05 17:31N 49°17' W 123°04'0 0.0
2014-Oct-05 16:31N 49°17' W 123°04'0 0.0
2014-Oct-05 15:31N 49°17' W 123°04'0 0.0
2014-Oct-05 14:31N 49°17' W 123°04'0 0.0
2014-Oct-05 13:31N 49°17' W 123°04'0 0.0
2014-Oct-05 12:31N 49°17' W 123°04'0 0.0
2014-Oct-05 11:31N 49°17' W 123°04'0 0.0
2014-Oct-05 10:31N 49°17' W 123°04'0 0.0
2014-Oct-05 09:31N 49°17' W 123°04'0 0.0
2014-Oct-05 08:31N 49°17' W 123°04'0 0.0
2014-Oct-05 07:31N 49°17' W 123°04'0 0.0
2014-Oct-05 06:31N 49°17' W 123°04'0 0.0
2014-Oct-05 05:31N 49°17' W 123°04'0 0.0
2014-Oct-05 04:31N 49°17' W 123°04'0 0.0
2014-Oct-05 03:31N 49°17' W 123°04'0 0.0
2014-Oct-05 02:31N 49°17' W 123°04'0 0.0
2014-Oct-05 01:31N 49°17' W 123°04'0 0.0
2014-Oct-05 00:31N 49°17' W 123°04'0 0.0
2014-Oct-04 23:31N 49°17' W 123°04'0 0.0
2014-Oct-04 22:31N 49°17' W 123°04'0 0.0
2014-Oct-04 21:31N 49°17' W 123°04'0 0.0
2014-Oct-04 20:31N 49°17' W 123°04'0 0.0
2014-Oct-04 19:31N 49°17' W 123°04'0 0.0
2014-Oct-04 18:31N 49°17' W 123°04'0 0.0
2014-Oct-04 17:31N 49°17' W 123°04'0 0.0
2014-Oct-04 16:31N 49°17' W 123°04'0 0.0
2014-Oct-04 15:31N 49°17' W 123°04'0 0.0
2014-Oct-04 14:31N 49°17' W 123°04'0 0.0
2014-Oct-04 13:31N 49°17' W 123°04'0 0.0
2014-Oct-04 12:31N 49°17' W 123°04'0 0.0
2014-Oct-04 11:31N 49°17' W 123°04'0 0.0
2014-Oct-04 10:31N 49°17' W 123°04'0 0.0
2014-Oct-04 09:31N 49°17' W 123°04'0 0.0
2014-Oct-04 08:31N 49°17' W 123°04'0 0.0
2014-Oct-04 07:31N 49°17' W 123°04'0 0.0
2014-Oct-04 06:28N 49°17' W 123°04'0 0.0
2014-Oct-04 05:31N 49°17' W 123°04'0 0.0
2014-Oct-04 04:31N 49°17' W 123°04'0 0.0
2014-Oct-04 03:31N 49°17' W 123°04'0 0.0
2014-Oct-04 02:31N 49°17' W 123°04'0 0.0
2014-Oct-04 01:31N 49°17' W 123°04'0 0.0
2014-Oct-04 00:28N 49°17' W 123°04'0 0.0
2014-Oct-03 23:31N 49°17' W 123°04'0 0.0
2014-Oct-03 22:31N 49°17' W 123°04'0 0.0
2014-Oct-03 21:31N 49°17' W 123°04'0 0.0
2014-Oct-03 20:31N 49°17' W 123°04'0 0.0
2014-Oct-03 19:28N 49°17' W 123°04'0 0.0
2014-Oct-03 18:31N 49°17' W 123°04'0 0.0
2014-Oct-03 17:31N 49°17' W 123°04'0 0.0
2014-Oct-03 16:31N 49°17' W 123°04'0 0.0
2014-Oct-03 15:31N 49°17' W 123°04'0 0.0
2014-Oct-03 14:31N 49°17' W 123°04'0 0.0
2014-Oct-03 13:31N 49°17' W 123°04'  

Dump ship's entire track history